createdAt,value
2018-06-25T00:02:45.774Z,13.40
2018-06-25T00:05:14.534Z,13.40
2018-06-25T00:07:43.353Z,13.40
2018-06-25T00:10:12.013Z,13.50
2018-06-25T00:12:41.149Z,13.40
2018-06-25T00:15:09.873Z,13.40
2018-06-25T00:17:38.845Z,13.50
2018-06-25T00:20:07.347Z,13.50
2018-06-25T00:22:35.887Z,13.40
2018-06-25T00:25:04.424Z,13.40
2018-06-25T00:27:32.972Z,13.30
2018-06-25T00:35:00.566Z,13.30
2018-06-25T00:37:29.184Z,13.30
2018-06-25T00:39:58.790Z,13.30
2018-06-25T00:42:27.543Z,13.30
2018-06-25T00:44:57.087Z,13.40
2018-06-25T00:47:25.924Z,13.40
2018-06-25T00:49:57.828Z,13.40
2018-06-25T00:52:27.376Z,13.40
2018-06-25T00:54:57.735Z,13.40
2018-06-25T00:57:28.380Z,13.50
2018-06-25T00:59:59.640Z,13.50
2018-06-25T01:02:28.405Z,13.50
2018-06-25T01:04:56.906Z,13.50
2018-06-25T01:07:26.725Z,13.50
2018-06-25T01:09:55.198Z,13.50
2018-06-25T01:12:29.583Z,13.50
2018-06-25T01:15:27.371Z,13.60
2018-06-25T01:29:48.434Z,13.60
2018-06-25T01:32:17.419Z,13.30
2018-06-25T01:34:47.737Z,13.30
2018-06-25T01:37:18.299Z,13.40
2018-06-25T01:44:59.775Z,13.40
2018-06-25T01:48:21.636Z,13.40
2018-06-25T01:54:04.257Z,13.20
2018-06-25T01:56:40.207Z,13.20
2018-06-25T01:59:10.591Z,13.20
2018-06-25T02:07:02.020Z,13.10
2018-06-25T02:09:44.534Z,13.10
2018-06-25T02:12:15.233Z,13.00
2018-06-25T02:14:44.636Z,13.00
2018-06-25T02:17:14.155Z,13.10
2018-06-25T02:19:46.655Z,13.10
2018-06-25T02:22:18.828Z,13.20
2018-06-25T02:24:48.591Z,13.10
2018-06-25T02:27:18.140Z,13.20
2018-06-25T02:29:49.486Z,13.30
2018-06-25T02:32:22.332Z,13.20
2018-06-25T02:34:51.291Z,13.20
2018-06-25T02:37:21.046Z,13.10
2018-06-25T02:39:53.139Z,13.10
2018-06-25T02:42:22.740Z,13.10
2018-06-25T02:44:51.531Z,13.20
2018-06-25T02:47:35.632Z,13.20
2018-06-25T02:50:19.230Z,13.20
2018-06-25T03:18:24.399Z,13.00
2018-06-25T03:20:53.743Z,13.00
2018-06-25T03:23:24.686Z,12.90
2018-06-25T03:25:59.439Z,13.00
2018-06-25T03:28:29.018Z,13.00
2018-06-25T03:30:57.622Z,13.10
2018-06-25T03:33:31.731Z,13.10
2018-06-25T03:36:02.726Z,13.10
2018-06-25T03:38:32.356Z,13.10
2018-06-25T03:41:02.180Z,13.10
2018-06-25T03:43:30.814Z,13.20
2018-06-25T03:45:59.479Z,13.20
2018-06-25T03:50:57.251Z,13.20
2018-06-25T04:09:49.703Z,13.10
2018-06-25T04:12:18.996Z,13.00
2018-06-25T04:14:49.249Z,13.00
2018-06-25T04:17:18.348Z,13.10
2018-06-25T04:19:56.642Z,13.10
2018-06-25T04:22:28.154Z,13.20
2018-06-25T04:25:13.431Z,13.20
2018-06-25T04:32:51.232Z,13.20
2018-06-25T04:35:20.427Z,13.20
2018-06-25T04:37:49.187Z,13.10
2018-06-25T04:40:22.339Z,13.10
2018-06-25T04:42:51.063Z,13.20
2018-06-25T04:45:24.162Z,13.20
2018-06-25T04:50:27.067Z,13.20
2018-06-25T04:52:55.899Z,13.30
2018-06-25T04:55:28.674Z,13.30
2018-06-25T04:57:57.319Z,13.40
2018-06-25T05:00:27.663Z,13.40
2018-06-25T05:02:56.739Z,13.40
2018-06-25T05:05:26.570Z,13.40
2018-06-25T05:07:55.108Z,13.50
2018-06-25T05:10:23.789Z,13.50
2018-06-25T05:12:52.554Z,13.60
2018-06-25T05:15:22.036Z,13.70
2018-06-25T05:17:59.784Z,13.70
2018-06-25T07:09:58.972Z,13.40
2018-06-25T07:12:51.512Z,14.80
2018-06-25T07:21:48.552Z,14.60
2018-06-25T07:24:59.200Z,14.60
2018-06-25T08:48:49.925Z,14.70
2018-06-25T08:51:19.717Z,15.60
2018-06-25T08:53:49.110Z,15.90
2018-06-25T08:56:21.386Z,16.20
2018-06-25T08:58:50.906Z,16.40
2018-06-25T09:01:20.117Z,16.40
2018-06-25T09:03:50.789Z,16.30
2018-06-25T09:06:19.578Z,16.20
2018-06-25T09:08:48.754Z,16.20
2018-06-25T09:11:19.593Z,16.20
2018-06-25T09:13:49.146Z,16.20
2018-06-25T09:16:19.121Z,16.40
2018-06-25T09:18:48.811Z,16.40
2018-06-25T09:21:19.627Z,16.50
2018-06-25T09:26:20.823Z,16.70
2018-06-25T09:31:21.551Z,16.70
2018-06-25T09:33:50.883Z,16.80
2018-06-25T09:36:22.003Z,16.80
2018-06-25T09:38:51.826Z,16.80
2018-06-25T09:41:22.806Z,16.70
2018-06-25T09:43:52.233Z,16.60
2018-06-25T09:46:21.008Z,16.70
2018-06-25T09:48:51.590Z,16.90
2018-06-25T09:51:22.713Z,16.90
2018-06-25T09:53:52.845Z,16.80
2018-06-25T09:56:22.375Z,16.90
2018-06-25T09:58:51.118Z,16.90
2018-06-25T10:01:19.907Z,17.00
2018-06-25T10:03:50.206Z,17.20
2018-06-25T10:06:19.818Z,17.50
2018-06-25T10:08:49.788Z,17.80
2018-06-25T10:11:18.739Z,17.90
2018-06-25T10:13:49.251Z,17.90
2018-06-25T10:16:19.163Z,17.90
2018-06-25T10:18:49.252Z,18.00
2018-06-25T10:21:18.705Z,18.10
2018-06-25T10:23:48.970Z,18.20
2018-06-25T10:26:17.966Z,18.30
2018-06-25T10:28:47.124Z,18.50
2018-06-25T10:31:17.888Z,18.50
2018-06-25T10:33:47.561Z,18.50
2018-06-25T10:36:20.162Z,18.30
2018-06-25T10:38:49.118Z,18.10
2018-06-25T10:41:18.812Z,17.90
2018-06-25T10:43:50.769Z,17.80
2018-06-25T10:46:20.243Z,17.90
2018-06-25T10:48:50.789Z,18.10
2018-06-25T10:51:19.898Z,18.30
2018-06-25T10:53:50.335Z,18.40
2018-06-25T10:56:27.323Z,18.10
2018-06-25T10:59:25.512Z,17.90
2018-06-25T11:02:00.049Z,17.80
2018-06-25T11:04:48.052Z,17.70
2018-06-25T11:07:55.106Z,17.60
2018-06-25T11:11:31.207Z,17.60
2018-06-25T11:14:33.955Z,17.70
2018-06-25T11:20:25.056Z,17.80
2018-06-25T11:26:10.524Z,17.60
2018-06-25T11:29:12.692Z,17.40
2018-06-25T11:52:31.231Z,18.50
2018-06-25T11:54:59.919Z,17.90
2018-06-25T11:57:30.419Z,17.80
2018-06-25T12:00:00.212Z,17.90
2018-06-25T12:02:30.521Z,17.80
2018-06-25T12:04:59.401Z,17.80
2018-06-25T12:07:28.148Z,17.90
2018-06-25T12:09:57.172Z,18.00
2018-06-25T12:12:34.987Z,18.20
2018-06-25T12:15:03.661Z,18.20
2018-06-25T12:17:32.247Z,18.40
2018-06-25T12:20:00.940Z,18.50
2018-06-25T12:22:29.859Z,18.60
2018-06-25T12:25:00.025Z,18.70
2018-06-25T12:27:28.872Z,18.80
2018-06-25T12:32:53.392Z,18.80
2018-06-25T12:35:21.854Z,18.70
2018-06-25T12:37:50.437Z,18.70
2018-06-25T12:40:18.913Z,18.70
2018-06-25T12:44:25.976Z,18.70
2018-06-25T12:47:33.041Z,18.70
2018-06-25T12:50:53.689Z,18.70
2018-06-25T13:01:41.899Z,18.70
2018-06-25T13:04:18.436Z,18.60
2018-06-25T13:06:47.211Z,18.70
2018-06-25T13:09:19.427Z,18.80
2018-06-25T13:12:03.621Z,18.60
2018-06-25T13:23:05.962Z,18.40
2018-06-25T13:38:27.778Z,17.80
2018-06-25T13:40:56.591Z,17.60
2018-06-25T13:43:25.326Z,17.70
2018-06-25T13:45:56.147Z,17.80
2018-06-25T14:05:16.752Z,18.30
2018-06-25T14:16:21.463Z,18.30
2018-06-25T14:20:06.543Z,18.30
2018-06-25T14:22:56.809Z,18.20
2018-06-25T14:25:33.504Z,18.20
2018-06-25T14:28:08.136Z,18.20
2018-06-25T14:31:42.728Z,18.30
2018-06-25T14:34:17.817Z,18.50
2018-06-25T14:36:48.422Z,18.70
2018-06-25T14:39:20.510Z,18.90
2018-06-25T14:41:56.937Z,19.00
2018-06-25T14:44:30.039Z,19.10
2018-06-25T14:48:22.787Z,19.30
2018-06-25T14:50:52.192Z,19.40
2018-06-25T14:53:21.731Z,19.50
2018-06-25T14:55:50.572Z,19.60
2018-06-25T14:58:19.222Z,19.90
2018-06-25T15:00:49.571Z,19.80
2018-06-25T15:03:19.163Z,19.70
2018-06-25T15:05:48.742Z,19.50
2018-06-25T15:08:19.102Z,19.50
2018-06-25T15:10:47.831Z,19.50
2018-06-25T15:13:19.245Z,19.50
2018-06-25T15:15:48.014Z,19.60
2018-06-25T15:18:18.990Z,19.50
2018-06-25T15:20:48.324Z,19.50
2018-06-25T15:23:19.174Z,19.50
2018-06-25T15:25:47.862Z,19.60
2018-06-25T15:28:17.905Z,19.80
2018-06-25T15:30:49.467Z,20.10
2018-06-25T15:33:18.083Z,20.40
2018-06-25T15:35:49.916Z,20.60
2018-06-25T15:38:31.067Z,20.60
2018-06-25T15:40:59.677Z,20.50
2018-06-25T15:43:28.157Z,20.50
2018-06-25T15:45:56.711Z,20.40
2018-06-25T15:48:25.342Z,20.30
2018-06-25T15:50:53.918Z,20.20
2018-06-25T15:53:23.161Z,20.10
2018-06-25T15:55:51.693Z,20.10
2018-06-25T15:58:21.107Z,20.20
2018-06-25T16:00:50.641Z,20.20
2018-06-25T16:03:23.437Z,20.20
2018-06-25T16:05:52.049Z,20.30
2018-06-25T16:08:21.457Z,20.40
2018-06-25T16:10:51.366Z,20.40
2018-06-25T16:13:20.819Z,20.50
2018-06-25T16:15:49.485Z,20.50
2018-06-25T16:18:19.086Z,20.60
2018-06-25T16:20:48.551Z,20.60
2018-06-25T16:23:18.515Z,20.60
2018-06-25T16:25:48.128Z,20.60
2018-06-25T16:28:17.868Z,20.40
2018-06-25T16:30:47.842Z,20.40
2018-06-25T16:33:17.795Z,20.30
2018-06-25T16:35:48.322Z,20.20
2018-06-25T16:38:19.061Z,20.00
2018-06-25T16:40:49.192Z,19.90
2018-06-25T16:43:17.868Z,19.90
2018-06-25T16:45:47.082Z,19.90
2018-06-25T16:48:18.090Z,19.90
2018-06-25T16:50:55.086Z,19.80
2018-06-25T16:53:23.719Z,19.80
2018-06-25T16:55:52.489Z,19.90
2018-06-25T16:58:22.282Z,19.80
2018-06-25T17:00:51.099Z,19.90
2018-06-25T17:03:23.070Z,19.90
2018-06-25T17:05:51.566Z,20.00
2018-06-25T17:08:21.659Z,20.00
2018-06-25T17:10:51.320Z,19.90
2018-06-25T17:13:20.829Z,19.90
2018-06-25T17:15:52.649Z,19.80
2018-06-25T17:18:41.003Z,19.90
2018-06-25T17:21:13.111Z,19.80
2018-06-25T17:23:49.031Z,19.80
2018-06-25T17:26:19.422Z,19.90
2018-06-25T17:28:48.634Z,20.00
2018-06-25T17:31:19.574Z,20.20
2018-06-25T17:36:48.371Z,20.70
2018-06-25T17:39:18.425Z,20.70
2018-06-25T17:41:51.507Z,20.50
2018-06-25T17:44:22.339Z,20.30
2018-06-25T17:46:52.286Z,20.20
2018-06-25T17:49:23.616Z,20.10
2018-06-25T17:51:52.929Z,19.90
2018-06-25T17:54:21.658Z,19.80
2018-06-25T17:56:50.836Z,19.70
2018-06-25T17:59:22.932Z,19.60
2018-06-25T18:01:52.598Z,19.60
2018-06-25T18:04:23.969Z,19.60
2018-06-25T18:06:52.635Z,19.60
2018-06-25T18:09:21.998Z,19.50
2018-06-25T18:11:51.980Z,19.50
2018-06-25T18:14:21.439Z,19.50
2018-06-25T18:16:50.104Z,19.50
2018-06-25T18:19:18.820Z,19.40
2018-06-25T18:21:48.789Z,19.40
2018-06-25T18:24:17.547Z,19.30
2018-06-25T18:26:48.576Z,19.30
2018-06-25T18:29:18.217Z,19.30
2018-06-25T18:31:52.578Z,19.30
2018-06-25T18:34:24.211Z,19.30
2018-06-25T18:36:53.122Z,19.20
2018-06-25T18:39:22.420Z,19.10
2018-06-25T18:41:53.181Z,19.20
2018-06-25T18:44:21.902Z,19.10
2018-06-25T18:46:51.169Z,19.10
2018-06-25T18:49:19.817Z,19.10
2018-06-25T18:51:49.863Z,19.10
2018-06-25T18:54:20.125Z,19.10
2018-06-25T18:56:52.315Z,19.10
2018-06-25T19:01:52.835Z,19.10
2018-06-25T19:04:24.841Z,19.00
2018-06-25T19:06:54.309Z,19.10
2018-06-25T19:09:23.165Z,19.10
2018-06-25T19:11:52.118Z,19.10
2018-06-25T19:14:21.477Z,19.20
2018-06-25T19:16:51.378Z,19.10
2018-06-25T19:19:20.079Z,19.20
2018-06-25T19:21:48.689Z,19.10
2018-06-25T19:24:20.378Z,19.00
2018-06-25T19:26:49.788Z,19.10
2018-06-25T19:29:21.391Z,19.00
2018-06-25T19:31:50.787Z,19.00
2018-06-25T19:34:19.355Z,19.00
2018-06-25T19:36:50.895Z,18.90
2018-06-25T19:39:19.891Z,18.80
2018-06-25T19:41:50.343Z,18.80
2018-06-25T19:44:20.235Z,18.70
2018-06-25T19:46:50.904Z,18.70
2018-06-25T19:49:20.661Z,18.70
2018-06-25T19:51:51.730Z,18.70
2018-06-25T19:54:20.513Z,18.70
2018-06-25T19:56:50.532Z,18.60
2018-06-25T19:59:19.695Z,18.50
2018-06-25T20:01:48.354Z,18.50
2018-06-25T20:04:17.865Z,18.50
2018-06-25T20:06:46.965Z,18.50
2018-06-25T20:09:17.742Z,18.40
2018-06-25T20:11:47.238Z,18.40
2018-06-25T20:14:18.196Z,18.40
2018-06-25T20:16:48.068Z,18.40
2018-06-25T20:19:18.418Z,18.30
2018-06-25T20:21:49.981Z,18.30
2018-06-25T20:24:18.742Z,18.30
2018-06-25T20:26:47.533Z,18.30
2018-06-25T20:29:19.041Z,18.30
2018-06-25T20:31:49.958Z,18.20
2018-06-25T20:34:21.266Z,18.10
2018-06-25T20:36:49.750Z,18.10
2018-06-25T20:39:29.354Z,18.20
2018-06-25T20:42:45.403Z,18.10
2018-06-25T20:45:23.554Z,18.20
2018-06-25T20:47:58.407Z,18.10
2018-06-25T20:50:35.700Z,18.10
2018-06-25T20:53:21.309Z,18.10
2018-06-25T20:55:50.070Z,18.00
2018-06-25T20:58:18.877Z,18.00
2018-06-25T21:00:48.523Z,18.00
2018-06-25T21:03:18.124Z,18.10
2018-06-25T21:05:48.677Z,18.00
2018-06-25T21:08:17.501Z,18.00
2018-06-25T21:10:48.012Z,18.00
2018-06-25T21:13:18.391Z,18.00
2018-06-25T21:15:48.694Z,17.90
2018-06-25T21:18:18.866Z,17.90
2018-06-25T21:20:48.318Z,17.90
2018-06-25T21:23:17.792Z,17.80
2018-06-25T21:25:48.781Z,17.80
2018-06-25T21:28:27.721Z,17.90
2018-06-25T21:30:56.390Z,17.80
2018-06-25T21:33:25.283Z,17.80
2018-06-25T21:35:53.881Z,17.80
2018-06-25T21:38:22.704Z,17.80
2018-06-25T21:40:51.212Z,17.70
2018-06-25T21:43:20.770Z,17.70
2018-06-25T21:45:49.645Z,17.70
2018-06-25T21:48:18.545Z,17.60
2018-06-25T21:50:51.757Z,17.60
2018-06-25T23:00:58.831Z,17.50
2018-06-25T23:03:27.412Z,15.80
2018-06-25T23:05:57.062Z,15.90
2018-06-25T23:08:26.661Z,16.00
2018-06-25T23:10:56.388Z,15.90
2018-06-25T23:13:25.109Z,16.00
2018-06-25T23:15:53.847Z,16.00
2018-06-25T23:18:22.614Z,16.00
2018-06-25T23:20:51.351Z,16.10
2018-06-25T23:23:20.923Z,16.00
2018-06-25T23:25:50.302Z,16.10
2018-06-25T23:28:22.937Z,16.10
2018-06-25T23:30:51.587Z,16.10
2018-06-25T23:33:22.859Z,16.00
2018-06-25T23:35:51.554Z,16.00
2018-06-25T23:38:20.455Z,16.00
2018-06-25T23:40:50.230Z,15.90
2018-06-25T23:43:20.201Z,15.90
2018-06-25T23:45:50.067Z,15.90
2018-06-25T23:48:18.900Z,15.90
2018-06-25T23:50:49.318Z,15.80
2018-06-25T23:53:20.245Z,15.80
2018-06-25T23:55:50.834Z,15.70
2018-06-25T23:58:20.507Z,15.70
